createdAt,value
2022-08-30T00:00:26.238Z,18.52
2022-08-30T00:02:55.970Z,17.23
2022-08-30T00:05:26.015Z,17.48
2022-08-30T00:07:56.914Z,19.48
2022-08-30T00:10:26.886Z,21.50
2022-08-30T00:12:56.747Z,23.05
2022-08-30T00:15:26.538Z,23.23
2022-08-30T00:17:57.218Z,23.15
2022-08-30T00:20:27.937Z,23.67
2022-08-30T00:22:57.950Z,25.90
2022-08-30T00:25:27.544Z,26.38
2022-08-30T00:27:57.238Z,23.23
2022-08-30T00:30:26.950Z,24.73
2022-08-30T00:32:56.613Z,21.83
2022-08-30T00:35:26.800Z,24.45
2022-08-30T00:37:56.728Z,20.13
2022-08-30T00:40:27.865Z,20.92
2022-08-30T00:42:59.865Z,18.17
2022-08-30T00:45:33.318Z,17.83
2022-08-30T00:48:03.136Z,18.50
2022-08-30T00:50:36.753Z,19.10
2022-08-30T00:53:08.533Z,17.80
2022-08-30T00:55:38.923Z,15.70
2022-08-30T00:58:10.397Z,16.75
2022-08-30T01:00:40.132Z,16.05
2022-08-30T01:03:10.674Z,16.25
2022-08-30T01:05:40.832Z,18.25
2022-08-30T01:08:10.739Z,16.63
2022-08-30T01:10:40.666Z,16.90
2022-08-30T01:13:10.931Z,19.38
2022-08-30T01:15:40.593Z,18.73
2022-08-30T01:18:11.543Z,22.23
2022-08-30T01:20:52.073Z,20.83
2022-08-30T01:23:21.832Z,19.88
2022-08-30T01:25:52.195Z,21.90
2022-08-30T01:28:23.850Z,19.60
2022-08-30T01:30:53.621Z,19.13
2022-08-30T01:33:25.074Z,20.73
2022-08-30T01:35:55.497Z,18.95
2022-08-30T01:38:27.182Z,20.35
2022-08-30T01:41:23.028Z,23.15
2022-08-30T01:43:52.815Z,20.67
2022-08-30T01:46:23.624Z,20.25
2022-08-30T01:48:54.223Z,20.98
2022-08-30T01:51:24.385Z,20.48
2022-08-30T01:53:55.089Z,21.25
2022-08-30T01:56:25.236Z,22.08
2022-08-30T01:58:57.250Z,23.38
2022-08-30T02:01:30.354Z,25.30
2022-08-30T02:04:02.240Z,23.30
2022-08-30T02:06:32.002Z,26.73
2022-08-30T02:09:03.235Z,24.02
2022-08-30T02:11:33.249Z,29.05
2022-08-30T02:14:03.103Z,26.83
2022-08-30T02:16:33.575Z,24.70
2022-08-30T02:19:03.336Z,23.73
2022-08-30T02:21:33.236Z,25.70
2022-08-30T02:24:02.984Z,35.58
2022-08-30T02:26:32.665Z,35.53
2022-08-30T02:29:02.360Z,25.58
2022-08-30T02:31:32.121Z,25.85
2022-08-30T02:34:01.861Z,24.27
2022-08-30T02:36:31.494Z,24.00
2022-08-30T02:39:01.213Z,26.45
2022-08-30T02:41:31.159Z,28.23
2022-08-30T02:44:01.819Z,26.67
2022-08-30T02:46:33.350Z,26.58
2022-08-30T02:49:23.721Z,24.33
2022-08-30T02:51:55.258Z,26.10
2022-08-30T02:54:25.206Z,24.95
2022-08-30T02:56:58.938Z,42.63
2022-08-30T02:59:28.865Z,44.00
2022-08-30T03:01:58.649Z,43.28
2022-08-30T03:04:29.429Z,43.55
2022-08-30T03:07:00.462Z,43.20
2022-08-30T03:09:31.021Z,42.22
2022-08-30T03:12:01.856Z,41.42
2022-08-30T03:14:31.510Z,41.90
2022-08-30T03:17:01.356Z,37.92
2022-08-30T03:19:31.384Z,39.40
2022-08-30T03:22:02.444Z,38.42
2022-08-30T03:24:32.799Z,32.53
2022-08-30T03:27:14.815Z,35.55
2022-08-30T03:29:44.473Z,25.02
2022-08-30T03:32:14.356Z,25.05
2022-08-30T03:34:44.006Z,25.98
2022-08-30T03:37:13.986Z,24.88
2022-08-30T03:39:43.695Z,25.17
2022-08-30T03:42:18.151Z,25.67
2022-08-30T03:45:03.656Z,24.33
2022-08-30T03:47:34.677Z,24.13
2022-08-30T03:50:04.457Z,23.67
2022-08-30T03:52:34.357Z,22.63
2022-08-30T03:55:04.090Z,23.58
2022-08-30T03:57:33.848Z,24.88
2022-08-30T04:00:09.301Z,23.35
2022-08-30T04:02:39.191Z,23.30
2022-08-30T04:05:09.579Z,24.90
2022-08-30T04:07:39.896Z,22.48
2022-08-30T04:10:10.731Z,21.50
2022-08-30T04:12:40.570Z,21.27
2022-08-30T04:15:11.975Z,19.88
2022-08-30T04:17:41.993Z,16.63
2022-08-30T04:20:12.257Z,19.63
2022-08-30T04:22:42.176Z,18.25
2022-08-30T04:25:15.323Z,19.27
2022-08-30T04:27:46.435Z,19.77
2022-08-30T04:30:16.875Z,18.55
2022-08-30T04:32:46.930Z,17.20
2022-08-30T04:35:17.750Z,17.25
2022-08-30T04:37:47.447Z,16.83
2022-08-30T04:40:17.797Z,15.90
2022-08-30T04:42:47.479Z,16.38
2022-08-30T04:45:18.278Z,17.30
2022-08-30T04:47:47.932Z,15.20
2022-08-30T04:50:19.297Z,15.07
2022-08-30T04:52:49.361Z,15.38
2022-08-30T04:55:20.442Z,13.43
2022-08-30T04:57:50.426Z,12.13
2022-08-30T05:00:21.828Z,13.00
2022-08-30T05:02:53.825Z,12.85
2022-08-30T05:05:41.583Z,13.35
2022-08-30T05:08:13.927Z,13.02
2022-08-30T05:10:47.225Z,13.07
2022-08-30T05:13:17.487Z,12.27
2022-08-30T05:15:47.604Z,13.18
2022-08-30T05:18:18.355Z,12.23
2022-08-30T05:20:47.934Z,13.93
2022-08-30T05:23:17.861Z,12.82
2022-08-30T05:25:47.743Z,11.93
2022-08-30T05:28:17.697Z,12.43
2022-08-30T05:30:47.608Z,12.00
2022-08-30T05:33:17.341Z,11.90
2022-08-30T05:35:47.186Z,12.65
2022-08-30T05:38:17.068Z,13.00
2022-08-30T05:40:46.841Z,12.82
2022-08-30T05:43:16.408Z,13.00
2022-08-30T05:45:46.043Z,12.13
2022-08-30T05:48:16.837Z,6.80
2022-08-30T05:50:46.751Z,6.15
2022-08-30T05:53:20.405Z,5.95
2022-08-30T05:55:50.021Z,5.20
2022-08-30T05:58:19.837Z,7.10
2022-08-30T06:00:49.353Z,6.90
2022-08-30T06:03:19.323Z,7.20
2022-08-30T06:05:49.128Z,7.00
2022-08-30T06:08:19.988Z,7.95
2022-08-30T06:10:50.633Z,7.75
2022-08-30T06:13:20.658Z,7.43
2022-08-30T06:15:51.123Z,8.38
2022-08-30T06:18:21.615Z,7.72
2022-08-30T06:20:58.533Z,7.82
2022-08-30T06:23:28.294Z,8.63
2022-08-30T06:25:58.081Z,7.97
2022-08-30T06:28:27.825Z,7.50
2022-08-30T06:31:01.649Z,6.40
2022-08-30T06:33:32.440Z,6.85
2022-08-30T06:36:08.821Z,6.22
2022-08-30T06:38:38.578Z,6.47
2022-08-30T06:41:11.897Z,6.25
2022-08-30T06:43:44.401Z,6.90
2022-08-30T06:46:18.554Z,6.53
2022-08-30T06:48:48.679Z,5.70
2022-08-30T06:51:18.737Z,6.80
2022-08-30T06:53:50.256Z,6.45
2022-08-30T06:56:20.296Z,5.72
2022-08-30T06:58:49.945Z,6.22
2022-08-30T07:01:23.952Z,6.97
2022-08-30T07:03:54.762Z,6.40
2022-08-30T07:06:25.753Z,7.30
2022-08-30T07:08:56.911Z,6.75
2022-08-30T07:11:37.144Z,7.32
2022-08-30T07:14:06.894Z,6.47
2022-08-30T07:16:37.232Z,6.53
2022-08-30T07:19:07.282Z,5.53
2022-08-30T07:21:46.532Z,5.25
2022-08-30T07:24:16.111Z,6.47
2022-08-30T07:26:48.718Z,5.22
2022-08-30T07:29:18.779Z,5.47
2022-08-30T07:31:48.467Z,4.93
2022-08-30T07:34:22.418Z,6.32
2022-08-30T07:36:54.116Z,5.68
2022-08-30T07:39:23.967Z,4.72
2022-08-30T07:41:53.618Z,5.35
2022-08-30T07:44:23.274Z,5.22
2022-08-30T07:46:54.963Z,5.97
2022-08-30T07:49:24.951Z,6.10
2022-08-30T07:51:55.656Z,6.18
2022-08-30T07:54:25.350Z,5.97
2022-08-30T07:56:57.432Z,5.57
2022-08-30T07:59:27.153Z,6.57
2022-08-30T08:01:56.919Z,5.95
2022-08-30T08:04:27.687Z,5.60
2022-08-30T08:06:57.897Z,4.80
2022-08-30T08:09:28.109Z,5.80
2022-08-30T08:11:58.210Z,5.38
2022-08-30T08:14:27.952Z,4.05
2022-08-30T08:17:00.335Z,4.75
2022-08-30T08:19:30.044Z,4.93
2022-08-30T08:22:20.027Z,5.40
2022-08-30T08:24:51.118Z,5.53
2022-08-30T08:27:20.792Z,6.47
2022-08-30T08:29:50.341Z,7.10
2022-08-30T08:32:19.899Z,5.15
2022-08-30T08:34:49.506Z,6.07
2022-08-30T08:37:20.806Z,5.00
2022-08-30T08:39:54.032Z,4.72
2022-08-30T08:42:28.066Z,5.55
2022-08-30T08:45:00.938Z,5.38
2022-08-30T08:47:34.374Z,4.63
2022-08-30T08:50:04.838Z,5.10
2022-08-30T08:53:24.886Z,4.85
2022-08-30T08:56:00.569Z,4.65
2022-08-30T08:58:31.254Z,4.55
2022-08-30T09:01:01.207Z,5.13
2022-08-30T09:03:31.518Z,5.45
2022-08-30T09:06:02.178Z,5.00
2022-08-30T09:08:34.573Z,5.65
2022-08-30T09:11:04.914Z,5.60
2022-08-30T09:13:36.011Z,5.22
2022-08-30T09:16:06.989Z,4.95
2022-08-30T09:18:50.106Z,6.05
2022-08-30T09:21:27.237Z,5.13
2022-08-30T09:24:01.537Z,4.47
2022-08-30T09:26:34.378Z,4.68
2022-08-30T09:29:04.172Z,4.70
2022-08-30T09:31:34.940Z,5.20
2022-08-30T09:34:06.729Z,4.45
2022-08-30T09:36:36.362Z,4.65
2022-08-30T09:39:07.687Z,4.30
2022-08-30T09:41:39.732Z,4.63
2022-08-30T09:44:19.313Z,4.93
2022-08-30T09:49:31.549Z,4.80
2022-08-30T09:52:07.638Z,5.38
2022-08-30T09:54:57.652Z,5.57
2022-08-30T09:57:33.640Z,6.43
2022-08-30T10:00:13.958Z,6.85
2022-08-30T10:02:46.305Z,7.03
2022-08-30T10:05:19.016Z,6.30
2022-08-30T10:08:09.481Z,6.65
2022-08-30T10:10:45.797Z,5.80
2022-08-30T10:13:33.992Z,8.02
2022-08-30T10:16:22.124Z,8.57
2022-08-30T10:19:16.211Z,7.20
2022-08-30T10:21:57.438Z,8.55
2022-08-30T10:24:33.367Z,8.73
2022-08-30T10:27:14.399Z,8.52
2022-08-30T10:29:46.024Z,10.30
2022-08-30T10:32:15.886Z,9.63
2022-08-30T10:34:49.269Z,9.60
2022-08-30T10:37:27.122Z,11.07
2022-08-30T10:39:58.082Z,10.95
2022-08-30T10:42:28.562Z,11.57
2022-08-30T10:45:06.434Z,11.63
2022-08-30T10:47:43.505Z,13.20
2022-08-30T10:50:16.569Z,14.43
2022-08-30T10:53:01.531Z,15.27
2022-08-30T10:55:32.699Z,15.50
2022-08-30T10:58:06.388Z,15.90
2022-08-30T11:00:39.440Z,17.38
2022-08-30T11:03:14.659Z,18.45
2022-08-30T11:05:44.438Z,15.85
2022-08-30T11:08:22.045Z,16.90
2022-08-30T11:10:58.926Z,16.60
2022-08-30T11:13:30.384Z,15.77
2022-08-30T11:16:00.804Z,17.90
2022-08-30T11:18:31.652Z,17.58
2022-08-30T11:21:19.864Z,16.75
2022-08-30T11:24:11.142Z,16.23
2022-08-30T11:26:51.007Z,17.65
2022-08-30T11:29:29.975Z,18.35
2022-08-30T11:32:01.031Z,18.77
2022-08-30T11:34:49.026Z,19.08
2022-08-30T11:37:39.017Z,18.40
2022-08-30T11:40:15.744Z,18.80
2022-08-30T11:42:51.419Z,19.17
2022-08-30T11:45:28.221Z,19.25
2022-08-30T11:48:06.917Z,17.92
2022-08-30T11:50:54.224Z,18.20
2022-08-30T11:53:26.636Z,17.10
2022-08-30T11:56:08.265Z,17.40
2022-08-30T11:58:43.958Z,18.25
2022-08-30T12:01:40.918Z,18.25
2022-08-30T12:04:08.194Z,17.63
2022-08-30T12:06:45.168Z,18.55
2022-08-30T12:09:29.516Z,19.35
2022-08-30T12:12:06.149Z,19.98
2022-08-30T12:14:35.718Z,21.08
2022-08-30T12:17:23.817Z,20.08
2022-08-30T12:19:57.406Z,19.88
2022-08-30T12:22:31.861Z,22.40
2022-08-30T12:25:02.559Z,22.38
2022-08-30T12:27:34.575Z,22.52
2022-08-30T12:30:07.610Z,22.67
2022-08-30T12:32:37.197Z,21.52
2022-08-30T12:35:08.484Z,21.65
2022-08-30T12:37:42.153Z,23.13
2022-08-30T12:40:13.607Z,22.00
2022-08-30T12:43:01.982Z,23.77
2022-08-30T12:48:10.003Z,20.42
2022-08-30T12:50:41.334Z,22.45
2022-08-30T12:53:15.070Z,22.58
2022-08-30T12:56:02.444Z,20.63
2022-08-30T12:58:40.207Z,20.20
2022-08-30T13:01:16.572Z,19.48
2022-08-30T13:04:03.526Z,20.23
2022-08-30T13:06:59.945Z,18.63
2022-08-30T13:09:32.626Z,18.48
2022-08-30T13:12:04.732Z,18.40
2022-08-30T13:14:42.482Z,85.00
2022-08-30T13:17:16.456Z,21.83
2022-08-30T13:19:47.287Z,16.40
2022-08-30T13:22:31.105Z,15.98
2022-08-30T13:25:01.285Z,15.27
2022-08-30T13:27:31.493Z,15.77
2022-08-30T13:30:14.495Z,16.05
2022-08-30T13:32:48.021Z,15.90
2022-08-30T13:35:18.008Z,15.55
2022-08-30T13:37:51.641Z,15.32
2022-08-30T13:40:25.469Z,14.63
2022-08-30T13:42:55.891Z,14.43
2022-08-30T13:45:44.444Z,14.90
2022-08-30T13:48:17.276Z,15.25
2022-08-30T13:50:49.426Z,14.30
2022-08-30T13:53:51.716Z,15.00
2022-08-30T13:56:14.217Z,15.45
2022-08-30T13:58:44.357Z,14.88
2022-08-30T14:01:16.513Z,14.20
2022-08-30T14:06:37.191Z,13.73
2022-08-30T14:09:29.130Z,14.18
2022-08-30T14:12:02.028Z,13.73
2022-08-30T14:14:42.741Z,14.38
2022-08-30T14:17:13.686Z,14.40
2022-08-30T14:19:43.578Z,12.73
2022-08-30T14:22:13.185Z,15.60
2022-08-30T14:24:44.051Z,14.18
2022-08-30T14:27:13.622Z,13.45
2022-08-30T14:29:47.445Z,13.90
2022-08-30T14:32:17.222Z,14.05
2022-08-30T14:34:47.184Z,13.07
2022-08-30T14:37:18.297Z,13.38
2022-08-30T14:39:49.608Z,13.35
2022-08-30T14:42:19.382Z,11.95
2022-08-30T14:44:56.309Z,12.82
2022-08-30T14:47:29.767Z,12.55
2022-08-30T14:50:02.449Z,11.63
2022-08-30T14:52:33.267Z,11.45
2022-08-30T14:55:08.777Z,11.80
2022-08-30T14:57:39.889Z,11.80
2022-08-30T15:00:11.622Z,11.70
2022-08-30T15:02:42.309Z,11.52
2022-08-30T15:05:12.285Z,12.90
2022-08-30T15:07:44.074Z,10.88
2022-08-30T15:10:16.317Z,12.85
2022-08-30T15:12:46.093Z,12.55
2022-08-30T15:15:16.743Z,11.82
2022-08-30T15:17:46.414Z,11.63
2022-08-30T15:20:16.463Z,11.73
2022-08-30T15:22:46.330Z,12.02
2022-08-30T15:25:16.395Z,12.80
2022-08-30T15:27:47.359Z,12.05
2022-08-30T15:30:20.212Z,12.65
2022-08-30T15:32:50.195Z,12.32
2022-08-30T15:35:20.058Z,11.88
2022-08-30T15:37:52.433Z,12.10
2022-08-30T15:40:23.252Z,12.02
2022-08-30T15:42:56.095Z,11.93
2022-08-30T15:45:25.814Z,12.27
2022-08-30T15:47:56.535Z,12.68
2022-08-30T15:50:26.321Z,12.45
2022-08-30T15:52:56.000Z,13.07
2022-08-30T15:55:26.335Z,12.70
2022-08-30T15:57:56.083Z,12.23
2022-08-30T16:00:25.880Z,11.50
2022-08-30T16:02:55.551Z,12.40
2022-08-30T16:05:25.719Z,12.73
2022-08-30T16:07:55.923Z,11.30
2022-08-30T16:10:25.615Z,12.30
2022-08-30T16:13:01.389Z,12.55
2022-08-30T16:15:32.925Z,13.20
2022-08-30T16:18:02.831Z,12.75
2022-08-30T16:20:32.483Z,13.63
2022-08-30T16:23:02.573Z,12.80
2022-08-30T16:25:40.684Z,12.93
2022-08-30T16:28:11.219Z,13.73
2022-08-30T16:30:41.243Z,13.32
2022-08-30T16:33:13.667Z,12.55
2022-08-30T16:35:43.242Z,13.18
2022-08-30T16:38:15.341Z,13.60
2022-08-30T16:40:45.057Z,12.77
2022-08-30T16:43:15.942Z,13.50
2022-08-30T16:45:46.126Z,14.00
2022-08-30T16:48:18.197Z,14.75
2022-08-30T16:50:48.764Z,13.93
2022-08-30T16:53:18.596Z,13.52
2022-08-30T16:55:48.397Z,13.90
2022-08-30T16:58:19.122Z,14.05
2022-08-30T17:00:52.385Z,12.75
2022-08-30T17:03:22.117Z,12.82
2022-08-30T17:05:52.102Z,12.60
2022-08-30T17:08:27.946Z,13.32
2022-08-30T17:10:58.796Z,13.30
2022-08-30T17:13:30.073Z,12.80
2022-08-30T17:16:03.155Z,12.23
2022-08-30T17:18:33.651Z,12.35
2022-08-30T17:21:03.163Z,12.07
2022-08-30T17:23:32.854Z,11.52
2022-08-30T17:26:02.778Z,11.63
2022-08-30T17:28:32.471Z,11.55
2022-08-30T17:31:05.044Z,10.38
2022-08-30T17:33:40.417Z,10.35
2022-08-30T17:36:10.283Z,11.38
2022-08-30T17:38:44.796Z,10.63
2022-08-30T17:41:14.867Z,13.27
2022-08-30T17:43:45.736Z,12.95
2022-08-30T17:46:19.873Z,12.65
2022-08-30T17:48:58.072Z,12.90
2022-08-30T17:51:31.282Z,13.48
2022-08-30T17:54:02.321Z,11.55
2022-08-30T17:56:35.484Z,12.77
2022-08-30T17:59:07.585Z,12.13
2022-08-30T18:01:37.555Z,11.75
2022-08-30T18:04:07.152Z,14.63
2022-08-30T18:06:37.058Z,14.05
2022-08-30T18:09:07.478Z,13.40
2022-08-30T18:11:43.074Z,12.05
2022-08-30T18:14:13.009Z,11.40
2022-08-30T18:16:53.394Z,11.38
2022-08-30T18:19:27.899Z,11.15
2022-08-30T18:21:57.771Z,12.10
2022-08-30T18:24:27.728Z,12.40
2022-08-30T18:27:00.082Z,11.13
2022-08-30T18:29:32.395Z,10.25
2022-08-30T18:32:02.805Z,10.63
2022-08-30T18:34:33.038Z,9.70
2022-08-30T18:37:02.815Z,11.10
2022-08-30T18:39:34.651Z,10.00
2022-08-30T18:42:10.013Z,9.98
2022-08-30T18:44:43.563Z,10.60
2022-08-30T18:47:13.601Z,9.88
2022-08-30T18:49:43.994Z,10.48
2022-08-30T18:52:14.033Z,10.18
2022-08-30T18:54:52.650Z,9.30
2022-08-30T18:57:23.580Z,10.13
2022-08-30T18:59:53.210Z,10.93
2022-08-30T19:02:27.744Z,10.75
2022-08-30T19:04:57.510Z,9.77
2022-08-30T19:07:34.472Z,10.32
2022-08-30T19:10:06.999Z,10.90
2022-08-30T19:12:36.663Z,11.45
2022-08-30T19:15:10.902Z,10.20
2022-08-30T19:17:42.888Z,10.20
2022-08-30T19:20:12.887Z,10.68
2022-08-30T19:23:09.245Z,11.00
2022-08-30T19:25:33.830Z,12.45
2022-08-30T19:28:03.608Z,12.48
2022-08-30T19:30:36.908Z,12.60
2022-08-30T19:33:06.750Z,11.73
2022-08-30T19:35:41.363Z,13.65
2022-08-30T19:38:11.631Z,13.13
2022-08-30T19:40:41.384Z,13.68
2022-08-30T19:43:11.036Z,13.82
2022-08-30T19:45:40.775Z,14.32
2022-08-30T19:48:11.001Z,13.68
2022-08-30T19:50:40.758Z,13.00
2022-08-30T19:53:10.562Z,16.50
2022-08-30T19:55:40.671Z,19.75
2022-08-30T19:58:11.218Z,24.58
2022-08-30T20:00:53.018Z,25.95
2022-08-30T20:03:24.592Z,26.98
2022-08-30T20:05:54.298Z,28.60
2022-08-30T20:08:24.252Z,28.38
2022-08-30T20:10:55.084Z,22.98
2022-08-30T20:13:25.417Z,21.77
2022-08-30T20:15:58.745Z,20.35
2022-08-30T20:18:28.820Z,19.30
2022-08-30T20:21:01.029Z,20.25
2022-08-30T20:23:35.661Z,17.65
2022-08-30T20:26:07.106Z,15.13
2022-08-30T20:28:37.007Z,13.35
2022-08-30T20:31:07.059Z,12.88
2022-08-30T20:33:38.863Z,11.18
2022-08-30T20:36:08.870Z,10.40
2022-08-30T20:38:39.594Z,8.98
2022-08-30T20:41:13.189Z,10.25
2022-08-30T20:43:43.002Z,8.63
2022-08-30T20:46:12.944Z,8.95
2022-08-30T20:48:43.126Z,9.77
2022-08-30T20:51:13.880Z,9.77
2022-08-30T20:53:44.745Z,9.05
2022-08-30T20:56:15.294Z,8.82
2022-08-30T20:58:46.062Z,9.35
2022-08-30T21:01:15.880Z,9.05
2022-08-30T21:03:46.093Z,10.15
2022-08-30T21:06:17.646Z,10.20
2022-08-30T21:08:48.759Z,10.07
2022-08-30T21:11:18.484Z,9.55
2022-08-30T21:13:49.730Z,9.68
2022-08-30T21:16:20.437Z,9.50
2022-08-30T21:18:51.915Z,9.27
2022-08-30T21:21:22.657Z,10.05
2022-08-30T21:23:52.574Z,10.00
2022-08-30T21:26:22.291Z,10.15
2022-08-30T21:28:52.572Z,9.82
2022-08-30T21:31:23.554Z,10.60
2022-08-30T21:33:55.007Z,11.13
2022-08-30T21:36:43.318Z,11.20
2022-08-30T21:39:13.707Z,10.52
2022-08-30T21:41:43.451Z,10.50
2022-08-30T21:44:20.285Z,10.00
2022-08-30T21:46:50.385Z,10.32
2022-08-30T21:49:22.918Z,10.77
2022-08-30T21:51:52.715Z,12.07
2022-08-30T21:54:22.673Z,12.70
2022-08-30T21:56:53.196Z,12.07
2022-08-30T21:59:23.169Z,12.27
2022-08-30T22:01:53.093Z,12.38
2022-08-30T22:04:26.239Z,12.00
2022-08-30T22:06:56.326Z,12.27
2022-08-30T22:09:27.109Z,11.80
2022-08-30T22:11:56.782Z,11.68
2022-08-30T22:14:26.617Z,11.85
2022-08-30T22:16:57.033Z,13.02
2022-08-30T22:19:26.856Z,14.32
2022-08-30T22:22:01.740Z,12.20
2022-08-30T22:24:33.117Z,12.05
2022-08-30T22:27:03.853Z,12.15
2022-08-30T22:29:33.505Z,12.90
2022-08-30T22:32:04.430Z,12.48
2022-08-30T22:34:34.203Z,12.20
2022-08-30T22:37:04.893Z,12.35
2022-08-30T22:39:34.735Z,12.05
2022-08-30T22:42:04.740Z,12.63
2022-08-30T22:44:34.694Z,13.63
2022-08-30T22:47:04.730Z,11.98
2022-08-30T22:49:34.594Z,13.00
2022-08-30T22:52:08.420Z,12.35
2022-08-30T22:54:39.520Z,13.07
2022-08-30T22:57:09.221Z,13.38
2022-08-30T22:59:38.995Z,13.10
2022-08-30T23:02:08.951Z,12.75
2022-08-30T23:04:42.053Z,11.98
2022-08-30T23:07:12.305Z,12.55
2022-08-30T23:09:42.456Z,12.30
2022-08-30T23:12:12.428Z,13.68
2022-08-30T23:14:42.076Z,12.40
2022-08-30T23:17:11.707Z,13.80
2022-08-30T23:19:41.497Z,15.07
2022-08-30T23:22:11.310Z,16.25
2022-08-30T23:24:59.045Z,16.60
2022-08-30T23:27:47.513Z,15.70
2022-08-30T23:30:37.803Z,14.95
2022-08-30T23:33:27.964Z,12.73
2022-08-30T23:36:15.892Z,12.90
2022-08-30T23:39:03.540Z,11.65
2022-08-30T23:41:53.205Z,11.75
2022-08-30T23:44:40.761Z,13.95
2022-08-30T23:47:28.455Z,12.50
2022-08-30T23:50:19.335Z,13.40
2022-08-30T23:53:07.433Z,15.20
2022-08-30T23:55:58.192Z,15.13
2022-08-30T23:58:46.405Z,15.43
